sensor_id;sensor_type;location;lat;lon;timestamp;pressure;altitude;pressure_sealevel;temperature;humidity
4346;BME280;2186;49.866;7.986;2023-11-19T00:01:57;100027.44;;;11.03;100.00
4346;BME280;2186;49.866;7.986;2023-11-19T00:04:24;100031.13;;;10.99;100.00
4346;BME280;2186;49.866;7.986;2023-11-19T00:06:51;100031.06;;;11.01;100.00
4346;BME280;2186;49.866;7.986;2023-11-19T00:09:17;100042.28;;;11.09;100.00
4346;BME280;2186;49.866;7.986;2023-11-19T00:11:44;100040.50;;;11.09;100.00
4346;BME280;2186;49.866;7.986;2023-11-19T00:14:19;100045.94;;;11.06;100.00
4346;BME280;2186;49.866;7.986;2023-11-19T00:16:46;100042.97;;;11.15;100.00
4346;BME280;2186;49.866;7.986;2023-11-19T00:19:12;100039.38;;;11.16;100.00
4346;BME280;2186;49.866;7.986;2023-11-19T00:21:39;100034.31;;;11.09;100.00
4346;BME280;2186;49.866;7.986;2023-11-19T00:24:07;100029.00;;;11.09;100.00
4346;BME280;2186;49.866;7.986;2023-11-19T00:26:34;100038.34;;;11.20;100.00
4346;BME280;2186;49.866;7.986;2023-11-19T00:29:01;100031.28;;;11.19;100.00
4346;BME280;2186;49.866;7.986;2023-11-19T00:31:28;100021.47;;;11.21;100.00
4346;BME280;2186;49.866;7.986;2023-11-19T00:33:55;100022.19;;;11.26;100.00
4346;BME280;2186;49.866;7.986;2023-11-19T00:36:22;100025.84;;;11.22;100.00
4346;BME280;2186;49.866;7.986;2023-11-19T00:38:50;100032.09;;;11.21;100.00
4346;BME280;2186;49.866;7.986;2023-11-19T00:41:16;100022.94;;;11.30;100.00
4346;BME280;2186;49.866;7.986;2023-11-19T00:43:43;100022.66;;;11.38;100.00
4346;BME280;2186;49.866;7.986;2023-11-19T00:46:09;100022.06;;;11.30;100.00
4346;BME280;2186;49.866;7.986;2023-11-19T00:48:37;100009.94;;;11.21;100.00
4346;BME280;2186;49.866;7.986;2023-11-19T00:51:04;100007.09;;;11.27;100.00
4346;BME280;2186;49.866;7.986;2023-11-19T00:53:31;100007.78;;;11.32;100.00
4346;BME280;2186;49.866;7.986;2023-11-19T00:56:00;100002.34;;;11.35;100.00
4346;BME280;2186;49.866;7.986;2023-11-19T00:58:26;100001.41;;;11.36;100.00
4346;BME280;2186;49.866;7.986;2023-11-19T01:00:53;100002.63;;;11.27;100.00
4346;BME280;2186;49.866;7.986;2023-11-19T01:03:19;99996.09;;;11.36;100.00
4346;BME280;2186;49.866;7.986;2023-11-19T01:05:46;100001.53;;;11.33;100.00
4346;BME280;2186;49.866;7.986;2023-11-19T01:08:13;100007.56;;;11.38;100.00
4346;BME280;2186;49.866;7.986;2023-11-19T01:10:40;100017.22;;;11.41;100.00
4346;BME280;2186;49.866;7.986;2023-11-19T01:13:06;100003.81;;;11.44;100.00
4346;BME280;2186;49.866;7.986;2023-11-19T01:15:33;99977.94;;;11.24;100.00
4346;BME280;2186;49.866;7.986;2023-11-19T01:17:59;100002.28;;;11.37;100.00
4346;BME280;2186;49.866;7.986;2023-11-19T01:20:28;99992.69;;;11.33;100.00
4346;BME280;2186;49.866;7.986;2023-11-19T01:22:54;100007.91;;;11.29;100.00
4346;BME280;2186;49.866;7.986;2023-11-19T01:25:21;99994.41;;;11.34;100.00
4346;BME280;2186;49.866;7.986;2023-11-19T01:27:47;99973.78;;;11.40;100.00
4346;BME280;2186;49.866;7.986;2023-11-19T01:30:14;100007.34;;;11.44;100.00
4346;BME280;2186;49.866;7.986;2023-11-19T01:32:41;100000.47;;;11.37;100.00
4346;BME280;2186;49.866;7.986;2023-11-19T01:35:07;100022.56;;;11.41;100.00
4346;BME280;2186;49.866;7.986;2023-11-19T01:37:34;100013.09;;;11.32;100.00
4346;BME280;2186;49.866;7.986;2023-11-19T01:40:02;99998.94;;;11.32;100.00
4346;BME280;2186;49.866;7.986;2023-11-19T01:42:39;99987.91;;;11.42;100.00
4346;BME280;2186;49.866;7.986;2023-11-19T01:45:06;99981.19;;;11.55;100.00
4346;BME280;2186;49.866;7.986;2023-11-19T01:47:37;99975.47;;;11.43;100.00
4346;BME280;2186;49.866;7.986;2023-11-19T01:50:06;99959.66;;;11.38;100.00
4346;BME280;2186;49.866;7.986;2023-11-19T01:52:34;99955.56;;;11.53;100.00
4346;BME280;2186;49.866;7.986;2023-11-19T01:55:03;99953.19;;;11.45;100.00
4346;BME280;2186;49.866;7.986;2023-11-19T01:57:30;99948.03;;;11.41;100.00
4346;BME280;2186;49.866;7.986;2023-11-19T01:59:57;99950.31;;;11.51;100.00
4346;BME280;2186;49.866;7.986;2023-11-19T02:02:24;99933.28;;;11.55;100.00
4346;BME280;2186;49.866;7.986;2023-11-19T02:04:53;99940.53;;;11.52;100.00
4346;BME280;2186;49.866;7.986;2023-11-19T02:07:19;99943.34;;;11.47;100.00
4346;BME280;2186;49.866;7.986;2023-11-19T02:09:46;99937.03;;;11.50;100.00
4346;BME280;2186;49.866;7.986;2023-11-19T02:12:13;99939.06;;;11.43;100.00
4346;BME280;2186;49.866;7.986;2023-11-19T02:14:40;99932.56;;;11.50;100.00
4346;BME280;2186;49.866;7.986;2023-11-19T02:17:06;99939.41;;;11.57;100.00
4346;BME280;2186;49.866;7.986;2023-11-19T02:19:33;99931.81;;;11.47;100.00
4346;BME280;2186;49.866;7.986;2023-11-19T02:22:00;99937.72;;;11.55;100.00
4346;BME280;2186;49.866;7.986;2023-11-19T02:24:29;99938.41;;;11.60;100.00
4346;BME280;2186;49.866;7.986;2023-11-19T02:27:07;99927.69;;;11.62;100.00
4346;BME280;2186;49.866;7.986;2023-11-19T02:29:36;99925.84;;;11.64;100.00
4346;BME280;2186;49.866;7.986;2023-11-19T02:32:04;99914.25;;;11.65;100.00
4346;BME280;2186;49.866;7.986;2023-11-19T02:34:31;99924.25;;;11.83;100.00
4346;BME280;2186;49.866;7.986;2023-11-19T02:36:57;99918.44;;;11.72;100.00
4346;BME280;2186;49.866;7.986;2023-11-19T02:39:24;99912.25;;;11.71;100.00
4346;BME280;2186;49.866;7.986;2023-11-19T02:41:50;99901.53;;;11.73;100.00
4346;BME280;2186;49.866;7.986;2023-11-19T02:44:19;99899.28;;;11.85;100.00
4346;BME280;2186;49.866;7.986;2023-11-19T02:46:45;99903.13;;;11.77;100.00
4346;BME280;2186;49.866;7.986;2023-11-19T02:49:14;99905.88;;;11.75;100.00
4346;BME280;2186;49.866;7.986;2023-11-19T02:51:41;99902.88;;;11.84;100.00
4346;BME280;2186;49.866;7.986;2023-11-19T02:54:08;99905.47;;;11.86;100.00
4346;BME280;2186;49.866;7.986;2023-11-19T02:56:34;99909.94;;;11.85;100.00
4346;BME280;2186;49.866;7.986;2023-11-19T02:59:03;99911.66;;;11.86;100.00
4346;BME280;2186;49.866;7.986;2023-11-19T03:01:38;99905.19;;;11.94;100.00
4346;BME280;2186;49.866;7.986;2023-11-19T03:04:09;99903.38;;;11.94;100.00
4346;BME280;2186;49.866;7.986;2023-11-19T03:06:38;99892.28;;;11.83;100.00
4346;BME280;2186;49.866;7.986;2023-11-19T03:09:05;99892.28;;;11.83;100.00
4346;BME280;2186;49.866;7.986;2023-11-19T03:11:37;99888.81;;;11.81;100.00
4346;BME280;2186;49.866;7.986;2023-11-19T03:14:03;99881.22;;;11.70;100.00
4346;BME280;2186;49.866;7.986;2023-11-19T03:16:30;99881.78;;;11.80;100.00
4346;BME280;2186;49.866;7.986;2023-11-19T03:18:56;99880.72;;;11.84;100.00
4346;BME280;2186;49.866;7.986;2023-11-19T03:21:30;99875.38;;;11.84;100.00
4346;BME280;2186;49.866;7.986;2023-11-19T03:23:58;99868.66;;;11.74;100.00
4346;BME280;2186;49.866;7.986;2023-11-19T03:26:27;99864.78;;;11.82;100.00
4346;BME280;2186;49.866;7.986;2023-11-19T03:28:54;99865.53;;;11.86;100.00
4346;BME280;2186;49.866;7.986;2023-11-19T03:31:20;99865.41;;;11.89;100.00
4346;BME280;2186;49.866;7.986;2023-11-19T03:33:47;99864.16;;;11.98;100.00
4346;BME280;2186;49.866;7.986;2023-11-19T03:36:14;99852.34;;;11.83;100.00
4346;BME280;2186;49.866;7.986;2023-11-19T03:38:40;99867.31;;;11.85;100.00
4346;BME280;2186;49.866;7.986;2023-11-19T03:41:12;99868.69;;;11.96;100.00
4346;BME280;2186;49.866;7.986;2023-11-19T03:43:39;99866.75;;;11.99;100.00
4346;BME280;2186;49.866;7.986;2023-11-19T03:46:21;99866.63;;;12.02;100.00
4346;BME280;2186;49.866;7.986;2023-11-19T03:48:48;99862.00;;;12.07;100.00
4346;BME280;2186;49.866;7.986;2023-11-19T03:51:16;99874.50;;;12.05;100.00
4346;BME280;2186;49.866;7.986;2023-11-19T03:53:43;99870.00;;;12.07;100.00
4346;BME280;2186;49.866;7.986;2023-11-19T03:56:10;99874.50;;;12.05;100.00
4346;BME280;2186;49.866;7.986;2023-11-19T03:58:38;99875.31;;;12.07;100.00
4346;BME280;2186;49.866;7.986;2023-11-19T04:01:05;99871.88;;;12.04;100.00
4346;BME280;2186;49.866;7.986;2023-11-19T04:03:32;99864.09;;;11.99;100.00
4346;BME280;2186;49.866;7.986;2023-11-19T04:05:59;99864.03;;;12.01;100.00
4346;BME280;2186;49.866;7.986;2023-11-19T04:08:26;99849.41;;;12.11;100.00
4346;BME280;2186;49.866;7.986;2023-11-19T04:10:52;99845.53;;;12.18;100.00
4346;BME280;2186;49.866;7.986;2023-11-19T04:13:19;99844.16;;;12.09;100.00
4346;BME280;2186;49.866;7.986;2023-11-19T04:15:46;99846.75;;;12.11;100.00
4346;BME280;2186;49.866;7.986;2023-11-19T04:18:12;99841.47;;;12.09;100.00
4346;BME280;2186;49.866;7.986;2023-11-19T04:20:38;99852.88;;;12.13;100.00
4346;BME280;2186;49.866;7.986;2023-11-19T04:23:05;99843.56;;;12.23;100.00
4346;BME280;2186;49.866;7.986;2023-11-19T04:25:31;99851.88;;;12.15;100.00
4346;BME280;2186;49.866;7.986;2023-11-19T04:27:58;99859.63;;;12.22;100.00
4346;BME280;2186;49.866;7.986;2023-11-19T04:30:25;99849.75;;;12.24;100.00
4346;BME280;2186;49.866;7.986;2023-11-19T04:32:51;99840.28;;;12.16;100.00
4346;BME280;2186;49.866;7.986;2023-11-19T04:35:18;99841.56;;;12.28;100.00
4346;BME280;2186;49.866;7.986;2023-11-19T04:37:45;99836.59;;;12.19;100.00
4346;BME280;2186;49.866;7.986;2023-11-19T04:40:12;99828.88;;;12.13;100.00
4346;BME280;2186;49.866;7.986;2023-11-19T04:42:39;99840.09;;;12.21;100.00
4346;BME280;2186;49.866;7.986;2023-11-19T04:45:08;99841.41;;;12.31;100.00
4346;BME280;2186;49.866;7.986;2023-11-19T04:47:37;99844.34;;;12.45;100.00
4346;BME280;2186;49.866;7.986;2023-11-19T04:50:03;99845.94;;;12.29;100.00
4346;BME280;2186;49.866;7.986;2023-11-19T04:52:30;99831.25;;;12.41;100.00
4346;BME280;2186;49.866;7.986;2023-11-19T04:54:57;99844.88;;;12.33;100.00
4346;BME280;2186;49.866;7.986;2023-11-19T04:57:23;99832.50;;;12.32;100.00
4346;BME280;2186;49.866;7.986;2023-11-19T04:59:50;99833.31;;;12.34;100.00
4346;BME280;2186;49.866;7.986;2023-11-19T05:02:17;99833.09;;;12.39;100.00
4346;BME280;2186;49.866;7.986;2023-11-19T05:04:43;99841.03;;;12.40;100.00
4346;BME280;2186;49.866;7.986;2023-11-19T05:07:10;99841.81;;;12.42;100.00
4346;BME280;2186;49.866;7.986;2023-11-19T05:09:37;99840.91;;;12.43;100.00
4346;BME280;2186;49.866;7.986;2023-11-19T05:12:04;99833.91;;;12.41;100.00
4346;BME280;2186;49.866;7.986;2023-11-19T05:14:30;99835.91;;;12.36;100.00
4346;BME280;2186;49.866;7.986;2023-11-19T05:16:57;99843.50;;;12.45;100.00
4346;BME280;2186;49.866;7.986;2023-11-19T05:19:23;99828.28;;;12.47;100.00
4346;BME280;2186;49.866;7.986;2023-11-19T05:21:50;99823.84;;;12.48;100.00
4346;BME280;2186;49.866;7.986;2023-11-19T05:24:18;99829.03;;;12.51;100.00
4346;BME280;2186;49.866;7.986;2023-11-19T05:26:45;99824.31;;;12.37;100.00
4346;BME280;2186;49.866;7.986;2023-11-19T05:29:11;99829.38;;;12.43;100.00
4346;BME280;2186;49.866;7.986;2023-11-19T05:31:38;99829.22;;;12.46;100.00
4346;BME280;2186;49.866;7.986;2023-11-19T05:34:07;99835.56;;;12.43;100.00
4346;BME280;2186;49.866;7.986;2023-11-19T05:36:34;99824.25;;;12.38;100.00
4346;BME280;2186;49.866;7.986;2023-11-19T05:39:00;99828.25;;;12.49;100.00
4346;BME280;2186;49.866;7.986;2023-11-19T05:41:27;99826.97;;;12.37;100.00
4346;BME280;2186;49.866;7.986;2023-11-19T05:43:54;99833.84;;;12.42;100.00
4346;BME280;2186;49.866;7.986;2023-11-19T05:46:20;99832.03;;;12.43;100.00
4346;BME280;2186;49.866;7.986;2023-11-19T05:48:47;99822.09;;;12.46;100.00
4346;BME280;2186;49.866;7.986;2023-11-19T05:51:15;99833.69;;;12.45;100.00
4346;BME280;2186;49.866;7.986;2023-11-19T05:53:42;99834.84;;;12.40;100.00
4346;BME280;2186;49.866;7.986;2023-11-19T05:56:09;99828.03;;;12.33;100.00
4346;BME280;2186;49.866;7.986;2023-11-19T05:58:36;99830.16;;;12.45;100.00
4346;BME280;2186;49.866;7.986;2023-11-19T06:01:04;99830.09;;;12.46;100.00
4346;BME280;2186;49.866;7.986;2023-11-19T06:03:31;99834.69;;;12.43;100.00
4346;BME280;2186;49.866;7.986;2023-11-19T06:05:58;99841.59;;;12.49;100.00
4346;BME280;2186;49.866;7.986;2023-11-19T06:08:24;99836.91;;;12.54;100.00
4346;BME280;2186;49.866;7.986;2023-11-19T06:10:53;99846.91;;;12.49;100.00
4346;BME280;2186;49.866;7.986;2023-11-19T06:13:20;99845.22;;;12.46;100.00
4346;BME280;2186;49.866;7.986;2023-11-19T06:15:50;99845.22;;;12.66;100.00
4346;BME280;2186;49.866;7.986;2023-11-19T06:18:18;99843.81;;;12.58;100.00
4346;BME280;2186;49.866;7.986;2023-11-19T06:20:46;99844.75;;;12.57;100.00
4346;BME280;2186;49.866;7.986;2023-11-19T06:23:13;99852.69;;;12.79;100.00
4346;BME280;2186;49.866;7.986;2023-11-19T06:25:39;99869.94;;;12.70;100.00
4346;BME280;2186;49.866;7.986;2023-11-19T06:28:06;99872.41;;;12.74;100.00
4346;BME280;2186;49.866;7.986;2023-11-19T06:30:32;99867.97;;;12.75;100.00
4346;BME280;2186;49.866;7.986;2023-11-19T06:32:59;99869.09;;;12.69;100.00
4346;BME280;2186;49.866;7.986;2023-11-19T06:35:26;99868.22;;;12.69;100.00
4346;BME280;2186;49.866;7.986;2023-11-19T06:37:53;99870.22;;;12.64;100.00
4346;BME280;2186;49.866;7.986;2023-11-19T06:40:21;99862.69;;;12.53;100.00
4346;BME280;2186;49.866;7.986;2023-11-19T06:42:47;99867.63;;;12.42;100.00
4346;BME280;2186;49.866;7.986;2023-11-19T06:45:14;99863.38;;;12.38;100.00
4346;BME280;2186;49.866;7.986;2023-11-19T06:47:41;99867.63;;;12.22;100.00
4346;BME280;2186;49.866;7.986;2023-11-19T06:50:07;99871.28;;;11.97;100.00
4346;BME280;2186;49.866;7.986;2023-11-19T06:52:34;99865.78;;;11.78;100.00
4346;BME280;2186;49.866;7.986;2023-11-19T06:55:00;99867.59;;;11.79;100.00
4346;BME280;2186;49.866;7.986;2023-11-19T06:57:35;99860.47;;;11.56;100.00
4346;BME280;2186;49.866;7.986;2023-11-19T07:00:01;99854.84;;;11.64;100.00
4346;BME280;2186;49.866;7.986;2023-11-19T07:02:29;99859.09;;;11.46;100.00
4346;BME280;2186;49.866;7.986;2023-11-19T07:04:56;99860.22;;;11.41;100.00
4346;BME280;2186;49.866;7.986;2023-11-19T07:07:23;99853.97;;;11.42;100.00
4346;BME280;2186;49.866;7.986;2023-11-19T07:09:49;99856.09;;;11.55;100.00
4346;BME280;2186;49.866;7.986;2023-11-19T07:12:16;99856.41;;;11.70;100.00
4346;BME280;2186;49.866;7.986;2023-11-19T07:14:42;99862.66;;;11.69;100.00
4346;BME280;2186;49.866;7.986;2023-11-19T07:17:09;99861.25;;;11.82;100.00
4346;BME280;2186;49.866;7.986;2023-11-19T07:19:36;99867.75;;;11.97;100.00
4346;BME280;2186;49.866;7.986;2023-11-19T07:22:05;99870.34;;;11.98;100.00
4346;BME280;2186;49.866;7.986;2023-11-19T07:24:32;99869.22;;;12.04;100.00
4346;BME280;2186;49.866;7.986;2023-11-19T07:26:59;99863.66;;;11.88;100.00
4346;BME280;2186;49.866;7.986;2023-11-19T07:29:26;99868.19;;;11.86;100.00
4346;BME280;2186;49.866;7.986;2023-11-19T07:31:55;99863.53;;;11.91;100.00
4346;BME280;2186;49.866;7.986;2023-11-19T07:34:22;99860.94;;;11.90;100.00
4346;BME280;2186;49.866;7.986;2023-11-19T07:36:48;99864.94;;;11.79;100.00
4346;BME280;2186;49.866;7.986;2023-11-19T07:39:15;99869.25;;;11.82;100.00
4346;BME280;2186;49.866;7.986;2023-11-19T07:41:41;99870.06;;;11.84;100.00
4346;BME280;2186;49.866;7.986;2023-11-19T07:44:08;99878.22;;;12.01;100.00
4346;BME280;2186;49.866;7.986;2023-11-19T07:46:34;99877.44;;;12.20;100.00
4346;BME280;2186;49.866;7.986;2023-11-19T07:49:01;99887.06;;;12.44;100.00
4346;BME280;2186;49.866;7.986;2023-11-19T07:51:29;99880.75;;;12.67;100.00
4346;BME280;2186;49.866;7.986;2023-11-19T07:53:55;99876.25;;;12.88;100.00
4346;BME280;2186;49.866;7.986;2023-11-19T07:56:22;99870.81;;;12.91;100.00
4346;BME280;2186;49.866;7.986;2023-11-19T07:58:48;99882.78;;;13.01;100.00
4346;BME280;2186;49.866;7.986;2023-11-19T08:01:15;99889.91;;;13.00;100.00
4346;BME280;2186;49.866;7.986;2023-11-19T08:03:42;99892.25;;;13.08;100.00
4346;BME280;2186;49.866;7.986;2023-11-19T08:06:24;99903.72;;;13.30;100.00
4346;BME280;2186;49.866;7.986;2023-11-19T08:08:51;99887.91;;;13.26;100.00
4346;BME280;2186;49.866;7.986;2023-11-19T08:11:18;99902.88;;;13.30;100.00
4346;BME280;2186;49.866;7.986;2023-11-19T08:13:46;99889.06;;;13.39;100.00
4346;BME280;2186;49.866;7.986;2023-11-19T08:16:13;99899.81;;;13.38;100.00
4346;BME280;2186;49.866;7.986;2023-11-19T08:18:42;99894.34;;;13.41;100.00
4346;BME280;2186;49.866;7.986;2023-11-19T08:21:09;99897.75;;;13.44;100.00
4346;BME280;2186;49.866;7.986;2023-11-19T08:23:36;99892.72;;;13.57;100.00
4346;BME280;2186;49.866;7.986;2023-11-19T08:26:05;99902.44;;;13.58;100.00
4346;BME280;2186;49.866;7.986;2023-11-19T08:28:32;99898.91;;;13.57;100.00
4346;BME280;2186;49.866;7.986;2023-11-19T08:31:01;99910.38;;;13.59;100.00
4346;BME280;2186;49.866;7.986;2023-11-19T08:33:27;99912.75;;;13.47;100.00
4346;BME280;2186;49.866;7.986;2023-11-19T08:35:54;99918.91;;;13.49;100.00
4346;BME280;2186;49.866;7.986;2023-11-19T08:38:21;99916.44;;;13.44;100.00
4346;BME280;2186;49.866;7.986;2023-11-19T08:40:50;99916.94;;;13.52;100.00
4346;BME280;2186;49.866;7.986;2023-11-19T08:43:18;99925.97;;;13.50;100.00
4346;BME280;2186;49.866;7.986;2023-11-19T08:45:44;99937.09;;;13.59;100.00
4346;BME280;2186;49.866;7.986;2023-11-19T08:48:11;99924.81;;;13.74;100.00
4346;BME280;2186;49.866;7.986;2023-11-19T08:50:37;99930.88;;;13.78;100.00
4346;BME280;2186;49.866;7.986;2023-11-19T08:53:04;99927.56;;;13.73;100.00
4346;BME280;2186;49.866;7.986;2023-11-19T08:55:33;99923.44;;;13.84;100.00
4346;BME280;2186;49.866;7.986;2023-11-19T08:57:59;99927.38;;;13.94;100.00
4346;BME280;2186;49.866;7.986;2023-11-19T09:00:26;99920.31;;;13.93;100.00
4346;BME280;2186;49.866;7.986;2023-11-19T09:02:52;99911.06;;;14.01;100.00
4346;BME280;2186;49.866;7.986;2023-11-19T09:05:19;99913.63;;;14.21;100.00
4346;BME280;2186;49.866;7.986;2023-11-19T09:07:46;99925.03;;;14.24;100.00
4346;BME280;2186;49.866;7.986;2023-11-19T09:10:12;99913.78;;;14.35;100.00
4346;BME280;2186;49.866;7.986;2023-11-19T09:12:39;99920.69;;;14.22;100.00
4346;BME280;2186;49.866;7.986;2023-11-19T09:15:06;99918.19;;;14.19;100.00
4346;BME280;2186;49.866;7.986;2023-11-19T09:17:33;99925.50;;;14.33;100.00
4346;BME280;2186;49.866;7.986;2023-11-19T09:19:59;99927.78;;;14.23;100.00
4346;BME280;2186;49.866;7.986;2023-11-19T09:22:26;99920.94;;;14.17;100.00
4346;BME280;2186;49.866;7.986;2023-11-19T09:24:53;99917.16;;;14.21;100.00
4346;BME280;2186;49.866;7.986;2023-11-19T09:27:20;99938.53;;;14.21;100.00
4346;BME280;2186;49.866;7.986;2023-11-19T09:29:47;99926.91;;;14.22;100.00
4346;BME280;2186;49.866;7.986;2023-11-19T09:32:15;99936.72;;;14.22;100.00
4346;BME280;2186;49.866;7.986;2023-11-19T09:34:41;99939.50;;;14.20;100.00
4346;BME280;2186;49.866;7.986;2023-11-19T09:37:08;99945.41;;;14.27;100.00
4346;BME280;2186;49.866;7.986;2023-11-19T09:39:47;99945.16;;;14.14;100.00
4346;BME280;2186;49.866;7.986;2023-11-19T09:42:14;99944.38;;;14.12;100.00
4346;BME280;2186;49.866;7.986;2023-11-19T09:44:42;99952.50;;;14.28;100.00
4346;BME280;2186;49.866;7.986;2023-11-19T09:47:10;99951.31;;;14.34;100.00
4346;BME280;2186;49.866;7.986;2023-11-19T09:49:37;99948.34;;;14.40;100.00
4346;BME280;2186;49.866;7.986;2023-11-19T09:52:05;99942.88;;;14.60;100.00
4346;BME280;2186;49.866;7.986;2023-11-19T09:54:32;99950.22;;;14.57;100.00
4346;BME280;2186;49.866;7.986;2023-11-19T09:56:59;99959.88;;;14.76;100.00
4346;BME280;2186;49.866;7.986;2023-11-19T09:59:30;99949.97;;;14.78;100.00
4346;BME280;2186;49.866;7.986;2023-11-19T10:01:57;99960.44;;;14.83;100.00
4346;BME280;2186;49.866;7.986;2023-11-19T10:04:25;99955.47;;;14.93;100.00
4346;BME280;2186;49.866;7.986;2023-11-19T10:06:56;99958.84;;;14.79;100.00
4346;BME280;2186;49.866;7.986;2023-11-19T10:09:22;99953.75;;;14.74;100.00
4346;BME280;2186;49.866;7.986;2023-11-19T10:11:49;99946.28;;;14.81;100.00
4346;BME280;2186;49.866;7.986;2023-11-19T10:14:16;99944.91;;;15.07;100.00
4346;BME280;2186;49.866;7.986;2023-11-19T10:16:45;99956.72;;;15.03;100.00
4346;BME280;2186;49.866;7.986;2023-11-19T10:19:18;99942.53;;;15.18;100.00
4346;BME280;2186;49.866;7.986;2023-11-19T10:21:46;99926.72;;;15.47;99.29
4346;BME280;2186;49.866;7.986;2023-11-19T10:24:12;99930.78;;;15.38;99.38
4346;BME280;2186;49.866;7.986;2023-11-19T10:26:56;99922.84;;;15.52;99.39
4346;BME280;2186;49.866;7.986;2023-11-19T10:29:23;99919.00;;;15.74;99.40
4346;BME280;2186;49.866;7.986;2023-11-19T10:31:57;99922.03;;;15.99;98.68
4346;BME280;2186;49.866;7.986;2023-11-19T10:34:43;99916.69;;;15.83;97.94
4346;BME280;2186;49.866;7.986;2023-11-19T10:37:27;99919.25;;;15.69;98.06
4346;BME280;2186;49.866;7.986;2023-11-19T10:39:54;99922.31;;;15.79;97.98
4346;BME280;2186;49.866;7.986;2023-11-19T10:42:21;99923.41;;;15.75;97.60
4346;BME280;2186;49.866;7.986;2023-11-19T10:44:48;99918.84;;;15.44;96.85
4346;BME280;2186;49.866;7.986;2023-11-19T10:47:15;99931.66;;;15.54;97.16
4346;BME280;2186;49.866;7.986;2023-11-19T10:49:45;99919.72;;;15.44;97.21
4346;BME280;2186;49.866;7.986;2023-11-19T10:52:18;99921.09;;;15.35;97.74
4346;BME280;2186;49.866;7.986;2023-11-19T10:54:51;99911.72;;;15.60;96.68
4346;BME280;2186;49.866;7.986;2023-11-19T10:57:21;99916.22;;;15.59;95.60
4346;BME280;2186;49.866;7.986;2023-11-19T10:59:55;99914.78;;;15.85;95.27
4346;BME280;2186;49.866;7.986;2023-11-19T11:02:25;99910.94;;;15.89;94.84
4346;BME280;2186;49.866;7.986;2023-11-19T11:04:54;99908.38;;;16.04;94.15
4346;BME280;2186;49.866;7.986;2023-11-19T11:07:22;99900.47;;;16.16;93.93
4346;BME280;2186;49.866;7.986;2023-11-19T11:10:02;99900.94;;;16.09;91.45
4346;BME280;2186;49.866;7.986;2023-11-19T11:12:36;99897.78;;;16.16;91.65
4346;BME280;2186;49.866;7.986;2023-11-19T11:15:04;99905.84;;;16.00;90.37
4346;BME280;2186;49.866;7.986;2023-11-19T11:17:33;99911.22;;;16.00;89.49
4346;BME280;2186;49.866;7.986;2023-11-19T11:20:00;99915.53;;;15.87;88.36
4346;BME280;2186;49.866;7.986;2023-11-19T11:22:28;99910.53;;;15.81;87.07
4346;BME280;2186;49.866;7.986;2023-11-19T11:25:19;99925.31;;;15.73;87.27
4346;BME280;2186;49.866;7.986;2023-11-19T11:28:18;99921.59;;;15.75;85.11
4346;BME280;2186;49.866;7.986;2023-11-19T11:39:34;99921.59;;;15.75;86.05
4346;BME280;2186;49.866;7.986;2023-11-19T11:50:17;99911.25;;;16.30;81.33
4346;BME280;2186;49.866;7.986;2023-11-19T11:55:51;99910.81;;;16.38;80.13
4346;BME280;2186;49.866;7.986;2023-11-19T11:58:19;99909.19;;;16.36;78.01
4346;BME280;2186;49.866;7.986;2023-11-19T12:00:48;99903.53;;;16.10;76.00
4346;BME280;2186;49.866;7.986;2023-11-19T12:03:14;99907.06;;;16.11;74.81
4346;BME280;2186;49.866;7.986;2023-11-19T12:05:45;99900.50;;;16.00;73.55
4346;BME280;2186;49.866;7.986;2023-11-19T12:08:18;99897.03;;;16.14;75.88
4346;BME280;2186;49.866;7.986;2023-11-19T12:10:55;99900.59;;;15.99;75.91
4346;BME280;2186;49.866;7.986;2023-11-19T12:13:42;99894.88;;;16.05;74.67
4346;BME280;2186;49.866;7.986;2023-11-19T12:16:09;99904.56;;;16.08;74.25
4346;BME280;2186;49.866;7.986;2023-11-19T12:18:38;99904.47;;;16.09;72.75
4346;BME280;2186;49.866;7.986;2023-11-19T12:21:06;99895.91;;;16.03;74.92
4346;BME280;2186;49.866;7.986;2023-11-19T12:23:44;99892.72;;;15.96;75.35
4346;BME280;2186;49.866;7.986;2023-11-19T12:26:21;99897.56;;;15.89;74.79
4346;BME280;2186;49.866;7.986;2023-11-19T12:28:58;99895.81;;;15.88;75.60
4346;BME280;2186;49.866;7.986;2023-11-19T12:31:25;99894.34;;;15.98;75.03
4346;BME280;2186;49.866;7.986;2023-11-19T12:33:51;99879.41;;;15.79;74.24
4346;BME280;2186;49.866;7.986;2023-11-19T12:36:19;99865.16;;;15.78;74.87
4346;BME280;2186;49.866;7.986;2023-11-19T12:38:46;99865.25;;;15.77;74.48
4346;BME280;2186;49.866;7.986;2023-11-19T12:41:12;99861.75;;;15.75;75.67
4346;BME280;2186;49.866;7.986;2023-11-19T12:43:39;99855.31;;;15.79;75.43
4346;BME280;2186;49.866;7.986;2023-11-19T12:46:22;99858.03;;;15.61;75.49
4346;BME280;2186;49.866;7.986;2023-11-19T12:48:49;99858.94;;;15.78;75.60
4346;BME280;2186;49.866;7.986;2023-11-19T12:51:16;99853.22;;;15.84;74.03
4346;BME280;2186;49.866;7.986;2023-11-19T12:53:51;99847.53;;;15.90;74.07
4346;BME280;2186;49.866;7.986;2023-11-19T12:56:21;99839.47;;;15.90;72.49
4346;BME280;2186;49.866;7.986;2023-11-19T12:58:48;99847.59;;;16.04;73.69
4346;BME280;2186;49.866;7.986;2023-11-19T13:01:18;99846.78;;;16.02;72.79
4346;BME280;2186;49.866;7.986;2023-11-19T13:03:46;99838.59;;;15.89;73.89
4346;BME280;2186;49.866;7.986;2023-11-19T13:06:14;99840.94;;;15.95;73.48
4346;BME280;2186;49.866;7.986;2023-11-19T13:08:46;99839.69;;;16.01;73.09
4346;BME280;2186;49.866;7.986;2023-11-19T13:11:33;99849.66;;;15.99;73.08
4346;BME280;2186;49.866;7.986;2023-11-19T13:16:29;99833.56;;;15.99;72.44
4346;BME280;2186;49.866;7.986;2023-11-19T13:18:57;99834.25;;;16.03;73.33
4346;BME280;2186;49.866;7.986;2023-11-19T13:21:24;99838.81;;;16.00;73.55
4346;BME280;2186;49.866;7.986;2023-11-19T13:23:51;99834.13;;;15.90;72.50
4346;BME280;2186;49.866;7.986;2023-11-19T13:26:17;99838.34;;;15.94;73.81
4346;BME280;2186;49.866;7.986;2023-11-19T13:28:44;99845.81;;;16.03;73.92
4346;BME280;2186;49.866;7.986;2023-11-19T13:31:11;99835.56;;;15.95;73.71
4346;BME280;2186;49.866;7.986;2023-11-19T13:33:37;99837.91;;;15.86;73.48
4346;BME280;2186;49.866;7.986;2023-11-19T13:36:04;99833.50;;;15.85;73.76
4346;BME280;2186;49.866;7.986;2023-11-19T13:38:35;99841.97;;;15.61;74.45
4346;BME280;2186;49.866;7.986;2023-11-19T13:41:02;99830.19;;;15.48;73.88